Time;durP1;ratioP1;P1;durP2;ratioP2;P2;SDS_P1;SDS_P2;PMS_P1;PMS_P2;Temp;Humidity;BMP_temperature;BMP_pressure;BME280_temperature;BME280_humidity;BME280_pressure;Samples;Min_cycle;Max_cycle;Signal;HPM_P1;HPM_P2
2020/12/10 00:02:11;;;;;;;3.67;3.30;;;;;;;;;;5100333;28;20232;-50
2020/12/10 00:04:37;;;;;;;4.85;3.72;;;;;;;;;;5099039;28;20202;-51
2020/12/10 00:07:03;;;;;;;3.92;3.42;;;;;;;;;;5092988;28;20176;-51
2020/12/10 00:09:29;;;;;;;4.35;3.90;;;;;;;;;;5099925;28;20184;-50
2020/12/10 00:11:55;;;;;;;5.35;4.07;;;;;;;;;;5100054;28;20166;-50
2020/12/10 00:14:21;;;;;;;5.63;3.78;;;;;;;;;;5098589;28;20581;-50
2020/12/10 00:16:47;;;;;;;4.45;3.45;;;;;;;;;;5099092;28;20187;-50
2020/12/10 00:19:13;;;;;;;3.83;3.53;;;;;;;;;;5099621;28;20173;-50
2020/12/10 00:21:39;;;;;;;4.10;3.70;;;;;;;;;;5099911;28;20161;-50
2020/12/10 00:24:05;;;;;;;4.25;3.30;;;;;;;;;;5084025;28;20208;-50
2020/12/10 00:26:31;;;;;;;3.92;3.53;;;;;;;;;;5093735;28;20278;-50
2020/12/10 00:28:57;;;;;;;5.28;3.72;;;;;;;;;;5100116;28;20181;-50
2020/12/10 00:31:23;;;;;;;4.72;3.45;;;;;;;;;;5099737;28;20169;-50
2020/12/10 00:33:49;;;;;;;4.60;3.83;;;;;;;;;;5099985;28;20260;-50
2020/12/10 00:36:15;;;;;;;3.42;3.13;;;;;;;;;;5098205;28;20223;-50
2020/12/10 00:38:42;;;;;;;3.90;3.50;;;;;;;;;;5097745;28;20177;-50
2020/12/10 00:41:08;;;;;;;3.90;3.33;;;;;;;;;;5102653;28;20181;-50
2020/12/10 00:43:34;;;;;;;3.97;3.58;;;;;;;;;;5119556;28;20165;-50
2020/12/10 00:46:04;;;;;;;4.10;3.70;;;;;;;;;;5089770;28;20643;-50
2020/12/10 00:48:30;;;;;;;3.60;3.30;;;;;;;;;;5079582;28;20179;-50
2020/12/10 00:50:56;;;;;;;3.33;3.03;;;;;;;;;;5079256;28;20175;-50
2020/12/10 00:53:21;;;;;;;3.97;3.58;;;;;;;;;;5079294;28;20181;-50
2020/12/10 00:55:48;;;;;;;3.30;3.00;;;;;;;;;;5079766;28;20227;-50
2020/12/10 00:58:14;;;;;;;3.60;3.15;;;;;;;;;;5097783;28;20201;-50
2020/12/10 01:00:40;;;;;;;3.70;3.40;;;;;;;;;;5098662;28;20278;-50
2020/12/10 01:03:06;;;;;;;3.47;3.17;;;;;;;;;;5093295;28;20193;-50
2020/12/10 01:05:32;;;;;;;3.90;3.50;;;;;;;;;;5078500;28;20205;-50
2020/12/10 01:07:57;;;;;;;3.58;3.28;;;;;;;;;;5094510;28;20223;-50
2020/12/10 01:10:24;;;;;;;3.33;3.03;;;;;;;;;;5099194;28;20252;-50
2020/12/10 01:12:49;;;;;;;4.00;3.45;;;;;;;;;;5098271;28;20185;-50
2020/12/10 01:15:15;;;;;;;3.25;2.95;;;;;;;;;;5079465;28;20184;-50
2020/12/10 01:17:42;;;;;;;3.58;3.28;;;;;;;;;;5092137;28;20265;-50
2020/12/10 01:20:09;;;;;;;3.47;3.17;;;;;;;;;;5099103;28;20295;-50
2020/12/10 01:22:35;;;;;;;3.95;3.55;;;;;;;;;;5098550;28;20163;-50
2020/12/10 01:25:01;;;;;;;4.05;3.65;;;;;;;;;;5097847;28;20197;-50
2020/12/10 01:27:27;;;;;;;3.85;3.47;;;;;;;;;;5091287;28;20182;-50
2020/12/10 01:29:53;;;;;;;3.33;3.03;;;;;;;;;;5098888;28;20198;-50
2020/12/10 01:32:19;;;;;;;3.67;3.38;;;;;;;;;;5085347;28;20202;-50
2020/12/10 01:34:44;;;;;;;3.88;3.40;;;;;;;;;;5089341;28;20609;-50
2020/12/10 01:37:10;;;;;;;3.65;3.30;;;;;;;;;;5086639;28;20258;-50
2020/12/10 01:39:38;;;;;;;3.80;3.22;;;;;;;;;;5097748;28;20598;-51
2020/12/10 01:42:04;;;;;;;4.13;3.72;;;;;;;;;;5095537;28;20186;-51
2020/12/10 01:44:30;;;;;;;3.47;3.17;;;;;;;;;;5078837;28;20256;-50
2020/12/10 01:46:56;;;;;;;3.67;3.10;;;;;;;;;;5098124;28;20249;-50
2020/12/10 01:49:22;;;;;;;3.40;3.10;;;;;;;;;;5098470;28;20200;-50
2020/12/10 01:51:48;;;;;;;3.72;3.42;;;;;;;;;;5097030;28;20188;-50
2020/12/10 01:54:14;;;;;;;3.58;3.28;;;;;;;;;;5097790;28;20182;-50
2020/12/10 01:56:40;;;;;;;3.53;3.20;;;;;;;;;;5098095;28;20252;-50
2020/12/10 01:59:06;;;;;;;3.55;3.25;;;;;;;;;;5086633;28;20282;-51
2020/12/10 02:01:33;;;;;;;3.40;3.10;;;;;;;;;;5087625;28;20577;-51
2020/12/10 02:03:59;;;;;;;3.30;3.00;;;;;;;;;;5097654;28;20264;-51
2020/12/10 02:06:25;;;;;;;3.92;3.08;;;;;;;;;;5097222;28;20552;-51
2020/12/10 02:08:51;;;;;;;3.28;2.97;;;;;;;;;;5098144;28;20189;-51
2020/12/10 02:11:17;;;;;;;3.10;2.80;;;;;;;;;;5094645;28;20185;-51
2020/12/10 02:13:43;;;;;;;3.22;2.92;;;;;;;;;;5097204;28;20281;-51
2020/12/10 02:16:10;;;;;;;3.35;2.75;;;;;;;;;;5080234;28;20595;-51
2020/12/10 02:18:36;;;;;;;3.35;3.05;;;;;;;;;;5095817;28;20588;-51
2020/12/10 02:21:02;;;;;;;4.25;2.72;;;;;;;;;;5097497;28;20259;-51
2020/12/10 02:23:28;;;;;;;3.30;3.00;;;;;;;;;;5097736;28;20186;-51
2020/12/10 02:25:55;;;;;;;3.75;3.20;;;;;;;;;;5085052;28;20204;-51
2020/12/10 02:28:21;;;;;;;3.70;3.40;;;;;;;;;;5097602;28;20453;-51
2020/12/10 02:30:47;;;;;;;2.95;2.75;;;;;;;;;;5097062;28;20180;-51
2020/12/10 02:33:13;;;;;;;3.65;3.33;;;;;;;;;;5097278;28;20166;-51
2020/12/10 02:35:41;;;;;;;3.30;3.00;;;;;;;;;;5087404;28;20186;-51
2020/12/10 02:38:08;;;;;;;3.15;2.85;;;;;;;;;;5083741;28;20183;-51
2020/12/10 02:40:37;;;;;;;3.60;2.85;;;;;;;;;;5093104;28;20199;-51
2020/12/10 02:43:03;;;;;;;3.15;2.72;;;;;;;;;;5077248;28;20175;-51
2020/12/10 02:45:30;;;;;;;3.85;3.15;;;;;;;;;;5091015;28;20572;-51
2020/12/10 02:47:56;;;;;;;3.50;2.83;;;;;;;;;;5096156;28;20170;-51
2020/12/10 02:50:22;;;;;;;4.13;3.50;;;;;;;;;;5097134;28;20170;-51
2020/12/10 02:52:48;;;;;;;3.20;2.90;;;;;;;;;;5097334;28;20174;-51
2020/12/10 02:55:14;;;;;;;3.15;2.80;;;;;;;;;;5087859;28;20565;-51
2020/12/10 02:57:40;;;;;;;2.97;2.70;;;;;;;;;;5090677;28;20239;-51
2020/12/10 03:00:08;;;;;;;3.17;2.88;;;;;;;;;;5097124;28;20208;-51
2020/12/10 03:02:34;;;;;;;3.45;3.15;;;;;;;;;;5096447;28;20225;-51
2020/12/10 03:05:00;;;;;;;3.30;3.00;;;;;;;;;;5096320;28;20556;-51
2020/12/10 03:07:26;;;;;;;3.05;2.85;;;;;;;;;;5095589;28;20182;-51
2020/12/10 03:09:52;;;;;;;3.25;2.95;;;;;;;;;;5096802;28;20166;-51
2020/12/10 03:12:18;;;;;;;3.40;3.10;;;;;;;;;;5087420;28;20212;-51
2020/12/10 03:14:44;;;;;;;3.40;3.10;;;;;;;;;;5079725;28;20174;-51
2020/12/10 03:17:10;;;;;;;3.47;3.10;;;;;;;;;;5095503;28;20421;-51
2020/12/10 03:19:36;;;;;;;3.00;2.70;;;;;;;;;;5096966;28;20184;-51
2020/12/10 03:22:03;;;;;;;3.15;2.85;;;;;;;;;;5096090;28;20566;-51
2020/12/10 03:24:29;;;;;;;3.22;2.90;;;;;;;;;;5095241;28;20205;-51
2020/12/10 03:26:55;;;;;;;3.15;2.90;;;;;;;;;;5083394;28;20221;-51
2020/12/10 03:29:21;;;;;;;3.25;2.95;;;;;;;;;;5096821;28;20169;-51
2020/12/10 03:31:47;;;;;;;2.83;2.63;;;;;;;;;;5096522;28;20454;-51
2020/12/10 03:34:13;;;;;;;2.75;2.53;;;;;;;;;;5095654;28;20193;-51
2020/12/10 03:36:56;;;;;;;3.00;2.80;;;;;;;;;;5096410;28;20478;-51
2020/12/10 03:39:23;;;;;;;3.10;2.85;;;;;;;;;;5076663;28;20253;-51
2020/12/10 03:41:50;;;;;;;2.88;2.67;;;;;;;;;;5087782;28;20219;-51
2020/12/10 03:44:16;;;;;;;2.83;2.63;;;;;;;;;;5095041;28;20174;-51
2020/12/10 03:46:42;;;;;;;3.35;3.05;;;;;;;;;;5091707;28;20289;-51
2020/12/10 03:49:08;;;;;;;2.97;2.78;;;;;;;;;;5076221;28;20522;-51
2020/12/10 03:51:34;;;;;;;3.03;2.75;;;;;;;;;;5096061;28;20202;-51
2020/12/10 03:54:00;;;;;;;2.95;2.70;;;;;;;;;;5095512;28;20170;-51
2020/12/10 03:56:26;;;;;;;3.00;2.80;;;;;;;;;;5087325;28;20178;-51
2020/12/10 03:58:52;;;;;;;3.20;2.70;;;;;;;;;;5095311;28;20162;-51
2020/12/10 04:01:18;;;;;;;3.40;2.88;;;;;;;;;;5085828;28;20200;-51
2020/12/10 04:03:45;;;;;;;2.67;2.47;;;;;;;;;;5093155;28;20182;-51
2020/12/10 04:06:11;;;;;;;3.22;2.58;;;;;;;;;;5086041;28;20549;-50
2020/12/10 04:08:37;;;;;;;3.28;2.97;;;;;;;;;;5095726;28;20244;-50
2020/12/10 04:11:04;;;;;;;2.75;2.55;;;;;;;;;;5094102;28;20208;-51
2020/12/10 04:13:30;;;;;;;3.10;2.80;;;;;;;;;;5080540;28;20174;-51
2020/12/10 04:15:56;;;;;;;2.60;2.40;;;;;;;;;;5074998;28;20187;-51
2020/12/10 04:18:22;;;;;;;3.63;2.47;;;;;;;;;;5088229;28;20178;-51
2020/12/10 04:20:48;;;;;;;3.00;2.60;;;;;;;;;;5095272;28;20472;-51
2020/12/10 04:23:14;;;;;;;3.15;2.95;;;;;;;;;;5086912;28;20204;-51
2020/12/10 04:25:40;;;;;;;2.80;2.60;;;;;;;;;;5095748;28;20460;-51
2020/12/10 04:28:06;;;;;;;2.90;2.70;;;;;;;;;;5095778;28;20175;-51
2020/12/10 04:30:32;;;;;;;2.55;2.35;;;;;;;;;;5096168;28;20597;-51
2020/12/10 04:32:58;;;;;;;2.65;2.45;;;;;;;;;;5095572;28;20466;-51
2020/12/10 04:35:23;;;;;;;2.58;2.38;;;;;;;;;;5097803;28;20166;-51
2020/12/10 04:37:49;;;;;;;2.78;2.58;;;;;;;;;;5099503;28;20525;-51
2020/12/10 04:40:15;;;;;;;2.75;2.55;;;;;;;;;;5099767;28;20173;-51
2020/12/10 04:42:43;;;;;;;3.20;2.90;;;;;;;;;;5100666;28;20181;-51
2020/12/10 04:45:09;;;;;;;2.80;2.50;;;;;;;;;;5098242;28;20201;-51
2020/12/10 04:47:35;;;;;;;2.70;2.50;;;;;;;;;;5086175;28;20185;-51
2020/12/10 04:50:04;;;;;;;2.67;2.47;;;;;;;;;;5079140;28;20170;-51
2020/12/10 04:52:31;;;;;;;2.90;2.70;;;;;;;;;;5092191;28;20190;-51
2020/12/10 04:54:57;;;;;;;3.10;2.80;;;;;;;;;;5091003;28;20190;-51
2020/12/10 04:57:26;;;;;;;2.83;2.63;;;;;;;;;;5079094;28;20177;-51
2020/12/10 04:59:52;;;;;;;2.72;2.53;;;;;;;;;;5089655;28;20240;-51
2020/12/10 05:02:19;;;;;;;3.55;2.60;;;;;;;;;;5097992;28;20201;-51
2020/12/10 05:04:45;;;;;;;2.42;2.22;;;;;;;;;;5098790;28;20162;-51
2020/12/10 05:07:11;;;;;;;2.95;2.70;;;;;;;;;;5099229;28;20204;-51
2020/12/10 05:09:37;;;;;;;3.17;2.88;;;;;;;;;;5095819;28;20246;-51
2020/12/10 05:12:03;;;;;;;6.95;4.43;;;;;;;;;;5087765;28;20177;-51
2020/12/10 05:14:45;;;;;;;14.32;5.47;;;;;;;;;;5093402;28;20498;-51
2020/12/10 05:17:13;;;;;;;12.93;5.38;;;;;;;;;;5088956;28;20174;-51
2020/12/10 05:19:39;;;;;;;13.80;4.55;;;;;;;;;;5098966;28;20154;-51
2020/12/10 05:22:06;;;;;;;9.73;4.75;;;;;;;;;;5089153;28;20185;-51
2020/12/10 05:24:35;;;;;;;10.98;4.28;;;;;;;;;;5094631;28;20283;-51
2020/12/10 05:27:36;;;;;;;10.60;4.30;;;;;;;;;;5099028;28;20185;-51
2020/12/10 05:30:03;;;;;;;11.00;4.53;;;;;;;;;;4997555;28;20177;-51
2020/12/10 05:32:29;;;;;;;11.63;4.35;;;;;;;;;;5077714;28;20182;-51
2020/12/10 05:34:55;;;;;;;10.85;3.95;;;;;;;;;;5098329;28;20205;-51
2020/12/10 05:37:27;;;;;;;7.82;3.78;;;;;;;;;;5098798;28;20173;-51
2020/12/10 05:40:00;;;;;;;8.93;3.85;;;;;;;;;;5098674;28;20193;-51
2020/12/10 05:42:43;;;;;;;7.28;4.20;;;;;;;;;;5093208;28;20174;-51
2020/12/10 05:45:10;;;;;;;7.90;4.05;;;;;;;;;;5089530;28;20458;-51
2020/12/10 05:47:39;;;;;;;9.18;4.03;;;;;;;;;;5078159;28;20158;-51
2020/12/10 05:50:05;;;;;;;7.97;4.18;;;;;;;;;;5097953;28;20445;-51
2020/12/10 05:52:36;;;;;;;8.85;4.10;;;;;;;;;;5084752;28;20184;-51
2020/12/10 05:55:03;;;;;;;6.43;3.70;;;;;;;;;;5082054;28;20219;-51
2020/12/10 05:57:29;;;;;;;6.65;3.97;;;;;;;;;;5080191;28;20187;-51
2020/12/10 05:59:55;;;;;;;6.38;3.85;;;;;;;;;;5077920;28;20171;-51
2020/12/10 06:02:22;;;;;;;7.72;3.72;;;;;;;;;;5077709;28;20269;-51
2020/12/10 06:04:52;;;;;;;7.50;3.70;;;;;;;;;;5084416;28;20189;-51
2020/12/10 06:07:18;;;;;;;7.72;3.42;;;;;;;;;;5098068;28;20542;-51
2020/12/10 06:09:44;;;;;;;7.38;3.80;;;;;;;;;;5096119;28;20253;-51
2020/12/10 06:12:10;;;;;;;6.40;3.50;;;;;;;;;;5077436;28;20167;-51
2020/12/10 06:14:50;;;;;;;9.63;4.10;;;;;;;;;;5096599;28;20586;-51
2020/12/10 06:17:16;;;;;;;5.15;3.38;;;;;;;;;;5097796;28;20253;-51
2020/12/10 06:19:42;;;;;;;5.72;3.13;;;;;;;;;;5097945;28;20253;-51
2020/12/10 06:22:23;;;;;;;5.60;3.35;;;;;;;;;;5097235;28;20573;-51
2020/12/10 06:24:49;;;;;;;6.70;3.92;;;;;;;;;;5096447;28;20176;-51
2020/12/10 06:27:25;;;;;;;6.45;3.80;;;;;;;;;;5097722;28;20252;-51
2020/12/10 06:30:10;;;;;;;6.43;3.70;;;;;;;;;;5097686;28;20162;-51
2020/12/10 06:32:39;;;;;;;4.90;3.20;;;;;;;;;;5097073;28;20166;-51
2020/12/10 06:35:05;;;;;;;6.20;3.60;;;;;;;;;;5092477;28;20175;-51
2020/12/10 06:37:31;;;;;;;6.22;3.78;;;;;;;;;;5087349;28;20173;-51
2020/12/10 06:40:06;;;;;;;5.25;3.20;;;;;;;;;;5097453;28;20259;-51
2020/12/10 06:42:46;;;;;;;7.28;3.33;;;;;;;;;;5113715;28;20173;-51
2020/12/10 06:45:25;;;;;;;5.63;3.72;;;;;;;;;;5105775;28;20182;-51
2020/12/10 06:47:51;;;;;;;6.10;3.25;;;;;;;;;;5097295;28;20212;-51
2020/12/10 06:50:21;;;;;;;5.72;3.60;;;;;;;;;;5097202;28;20162;-51
2020/12/10 06:53:06;;;;;;;4.13;3.10;;;;;;;;;;5096303;28;20158;-51
2020/12/10 06:55:32;;;;;;;5.05;3.05;;;;;;;;;;5096835;28;20182;-51
2020/12/10 06:58:06;;;;;;;5.80;3.15;;;;;;;;;;5095767;28;20323;-51
2020/12/10 07:00:47;;;;;;;6.22;3.20;;;;;;;;;;5097299;28;20604;-51
2020/12/10 07:03:21;;;;;;;5.43;3.42;;;;;;;;;;5097040;28;20504;-51
2020/12/10 07:05:47;;;;;;;4.00;3.20;;;;;;;;;;5093564;28;20182;-51
2020/12/10 07:08:18;;;;;;;3.72;2.83;;;;;;;;;;5079657;28;20178;-51
2020/12/10 07:10:45;;;;;;;5.45;3.10;;;;;;;;;;5096484;28;20174;-51
2020/12/10 07:13:11;;;;;;;4.93;3.20;;;;;;;;;;5094598;28;20597;-51
2020/12/10 07:15:37;;;;;;;3.70;2.92;;;;;;;;;;5076129;28;20470;-51
2020/12/10 07:18:04;;;;;;;4.85;2.85;;;;;;;;;;5085535;28;20457;-51
2020/12/10 07:20:32;;;;;;;5.10;2.90;;;;;;;;;;5096683;28;20201;-51
2020/12/10 07:22:58;;;;;;;5.57;3.60;;;;;;;;;;5096440;28;20480;-51
2020/12/10 07:25:24;;;;;;;4.05;2.83;;;;;;;;;;5096053;28;20488;-51
2020/12/10 07:27:50;;;;;;;4.82;2.88;;;;;;;;;;5089717;28;20652;-51
2020/12/10 07:30:18;;;;;;;5.90;3.00;;;;;;;;;;5076653;28;20190;-51
2020/12/10 07:32:44;;;;;;;3.55;3.00;;;;;;;;;;5088349;28;20280;-51
2020/12/10 07:35:10;;;;;;;5.47;3.30;;;;;;;;;;5095461;28;20193;-51
2020/12/10 07:37:37;;;;;;;4.30;2.80;;;;;;;;;;5096615;28;20174;-51
2020/12/10 07:40:10;;;;;;;5.68;3.03;;;;;;;;;;5095834;28;20228;-51
2020/12/10 07:42:36;;;;;;;5.22;3.28;;;;;;;;;;5113287;28;20184;-51
2020/12/10 07:45:10;;;;;;;3.95;3.20;;;;;;;;;;5115809;28;20193;-51
2020/12/10 07:47:36;;;;;;;4.53;2.80;;;;;;;;;;5105134;28;20216;-51
2020/12/10 07:50:07;;;;;;;4.43;3.03;;;;;;;;;;5093596;28;20470;-51
2020/12/10 07:52:33;;;;;;;3.55;2.92;;;;;;;;;;5095595;28;20169;-51
2020/12/10 07:54:59;;;;;;;3.53;2.67;;;;;;;;;;5096037;28;20177;-51
2020/12/10 07:57:30;;;;;;;4.70;2.83;;;;;;;;;;5096486;28;20174;-52
2020/12/10 07:59:58;;;;;;;7.05;3.10;;;;;;;;;;5096380;28;20166;-52
2020/12/10 08:02:38;;;;;;;4.65;3.05;;;;;;;;;;5082239;28;20206;-51
2020/12/10 08:05:12;;;;;;;4.72;2.67;;;;;;;;;;5089613;28;20219;-52
2020/12/10 08:07:38;;;;;;;4.22;2.95;;;;;;;;;;5096241;28;20253;-51
2020/12/10 08:10:04;;;;;;;5.85;3.13;;;;;;;;;;5098120;28;20174;-51
2020/12/10 08:12:30;;;;;;;5.78;3.35;;;;;;;;;;5100049;28;20401;-51
2020/12/10 08:14:56;;;;;;;5.45;2.92;;;;;;;;;;5098881;28;20192;-51
2020/12/10 08:17:23;;;;;;;4.15;3.40;;;;;;;;;;5085800;28;20257;-51
2020/12/10 08:19:55;;;;;;;4.90;3.85;;;;;;;;;;5093229;28;20213;-51
2020/12/10 08:22:23;;;;;;;5.57;3.88;;;;;;;;;;5079878;28;20178;-51
2020/12/10 08:24:49;;;;;;;4.75;4.22;;;;;;;;;;5079254;28;20167;-51
2020/12/10 08:27:16;;;;;;;8.10;4.15;;;;;;;;;;5079863;28;20295;-51
2020/12/10 08:29:59;;;;;;;5.15;4.20;;;;;;;;;;5087181;28;20600;-51
2020/12/10 08:32:25;;;;;;;7.68;4.30;;;;;;;;;;5079806;28;20167;-51
2020/12/10 08:35:01;;;;;;;9.45;4.95;;;;;;;;;;5079145;28;20174;-51
2020/12/10 08:37:36;;;;;;;6.95;4.60;;;;;;;;;;5079733;28;20166;-51
2020/12/10 08:40:02;;;;;;;6.82;4.80;;;;;;;;;;5083166;28;20181;-51
2020/12/10 08:42:28;;;;;;;6.82;4.40;;;;;;;;;;5115050;28;20169;-51
2020/12/10 08:44:54;;;;;;;4.88;4.22;;;;;;;;;;5119137;28;20161;-51
2020/12/10 08:47:24;;;;;;;6.00;4.55;;;;;;;;;;5119979;28;20169;-52
2020/12/10 08:50:22;;;;;;;6.63;4.45;;;;;;;;;;5119829;28;20261;-52
2020/12/10 08:52:49;;;;;;;7.60;4.82;;;;;;;;;;5102366;28;20162;-52
2020/12/10 08:55:15;;;;;;;6.38;4.38;;;;;;;;;;5099001;28;20174;-52
2020/12/10 08:57:48;;;;;;;9.32;4.82;;;;;;;;;;5097338;28;20678;-52
2020/12/10 09:00:14;;;;;;;8.13;4.78;;;;;;;;;;5084966;28;20175;-52
2020/12/10 09:02:40;;;;;;;6.38;4.80;;;;;;;;;;5093540;28;20184;-52
2020/12/10 09:05:06;;;;;;;4.65;4.10;;;;;;;;;;5098394;28;20193;-52
2020/12/10 09:07:32;;;;;;;4.97;4.45;;;;;;;;;;5099152;28;20522;-52
2020/12/10 09:10:02;;;;;;;5.00;3.92;;;;;;;;;;5099022;28;20186;-52
2020/12/10 09:12:28;;;;;;;5.68;4.40;;;;;;;;;;5099151;28;20201;-52
2020/12/10 09:14:53;;;;;;;6.25;4.22;;;;;;;;;;5080041;28;20206;-52
2020/12/10 09:17:19;;;;;;;6.00;3.97;;;;;;;;;;5099438;28;20181;-52
2020/12/10 09:19:45;;;;;;;5.88;4.18;;;;;;;;;;5079091;28;20165;-55
2020/12/10 09:22:12;;;;;;;5.53;4.13;;;;;;;;;;5098278;28;20170;-51
2020/12/10 09:24:38;;;;;;;4.63;3.83;;;;;;;;;;5091190;28;20571;-51
2020/12/10 09:27:07;;;;;;;5.25;4.28;;;;;;;;;;5094360;28;20174;-51
2020/12/10 09:29:34;;;;;;;6.18;3.70;;;;;;;;;;5096292;28;20191;-51
2020/12/10 09:32:01;;;;;;;5.35;4.15;;;;;;;;;;5098337;28;20173;-51
2020/12/10 09:34:27;;;;;;;5.65;3.80;;;;;;;;;;5098196;28;20193;-51
2020/12/10 09:36:53;;;;;;;5.18;3.80;;;;;;;;;;5078468;28;20179;-51
2020/12/10 09:39:19;;;;;;;5.05;3.72;;;;;;;;;;5097508;28;20611;-51
2020/12/10 09:41:45;;;;;;;4.65;3.38;;;;;;;;;;5098622;28;20189;-51
2020/12/10 09:44:11;;;;;;;4.28;3.65;;;;;;;;;;5092016;28;20504;-51
2020/12/10 09:46:37;;;;;;;6.35;3.90;;;;;;;;;;5089459;28;20277;-51
2020/12/10 09:49:03;;;;;;;4.85;3.70;;;;;;;;;;5088164;28;20197;-51
2020/12/10 09:51:37;;;;;;;4.53;3.35;;;;;;;;;;5078128;28;20536;-51
2020/12/10 09:54:10;;;;;;;3.85;3.20;;;;;;;;;;5077827;28;20487;-51
2020/12/10 09:59:22;;;;;;;4.75;3.45;;;;;;;;;;5083421;28;20170;-51
2020/12/10 10:01:48;;;;;;;4.10;2.97;;;;;;;;;;5098199;28;20252;-51
2020/12/10 10:04:14;;;;;;;4.82;3.00;;;;;;;;;;5078442;28;20178;-51
2020/12/10 10:06:42;;;;;;;3.85;3.17;;;;;;;;;;5077909;28;20241;-51
2020/12/10 10:09:08;;;;;;;4.10;3.25;;;;;;;;;;5077874;28;20175;-51
2020/12/10 10:11:34;;;;;;;3.08;2.78;;;;;;;;;;5081926;28;20173;-51
2020/12/10 10:14:00;;;;;;;3.15;2.95;;;;;;;;;;5076900;28;20167;-51
2020/12/10 10:16:27;;;;;;;3.08;2.72;;;;;;;;;;5089534;28;20182;-51
2020/12/10 10:18:53;;;;;;;3.33;3.03;;;;;;;;;;5096442;28;20460;-51
2020/12/10 10:21:19;;;;;;;3.17;2.80;;;;;;;;;;5103650;28;20165;-51
2020/12/10 10:23:45;;;;;;;4.60;2.70;;;;;;;;;;5108360;28;20186;-51
2020/12/10 10:26:12;;;;;;;3.67;3.03;;;;;;;;;;5086687;28;20194;-51
2020/12/10 10:28:39;;;;;;;4.05;2.90;;;;;;;;;;5097457;28;20270;-51
2020/12/10 10:31:07;;;;;;;3.08;2.78;;;;;;;;;;5097780;28;20158;-52
2020/12/10 10:33:33;;;;;;;3.40;2.60;;;;;;;;;;5096842;28;20170;-52
2020/12/10 10:35:59;;;;;;;2.83;2.60;;;;;;;;;;5092216;28;20178;-52
2020/12/10 10:38:25;;;;;;;3.70;2.90;;;;;;;;;;5092805;28;20256;-52
2020/12/10 10:40:51;;;;;;;3.33;2.80;;;;;;;;;;5099262;28;20181;-52
2020/12/10 10:43:17;;;;;;;3.25;2.92;;;;;;;;;;5108823;28;20451;-52
2020/12/10 10:45:44;;;;;;;3.47;3.10;;;;;;;;;;5080364;28;20497;-52
2020/12/10 10:48:09;;;;;;;3.83;3.20;;;;;;;;;;5082888;28;20221;-52
2020/12/10 10:50:35;;;;;;;3.30;3.00;;;;;;;;;;5098601;28;20235;-52
2020/12/10 10:53:01;;;;;;;2.80;2.60;;;;;;;;;;5106403;28;20178;-52
2020/12/10 10:55:28;;;;;;;6.75;3.00;;;;;;;;;;5096369;28;20166;-52
2020/12/10 10:57:54;;;;;;;2.88;2.67;;;;;;;;;;5097052;28;20631;-52
2020/12/10 11:00:20;;;;;;;2.70;2.50;;;;;;;;;;5088211;28;20178;-52
2020/12/10 11:02:46;;;;;;;3.08;2.78;;;;;;;;;;5087783;28;20178;-52
2020/12/10 11:05:12;;;;;;;2.58;2.38;;;;;;;;;;5079515;28;20193;-52
2020/12/10 11:07:39;;;;;;;3.05;2.75;;;;;;;;;;5096901;28;20446;-52
2020/12/10 11:10:05;;;;;;;3.20;2.88;;;;;;;;;;5095761;28;20173;-52
2020/12/10 11:12:31;;;;;;;2.63;2.42;;;;;;;;;;5096306;28;20201;-52
2020/12/10 11:14:57;;;;;;;2.83;2.60;;;;;;;;;;5095473;28;20541;-52
2020/12/10 11:17:23;;;;;;;2.90;2.65;;;;;;;;;;5096686;28;20178;-52
2020/12/10 11:19:49;;;;;;;5.20;2.95;;;;;;;;;;5096297;28;20181;-52
2020/12/10 11:22:16;;;;;;;5.07;2.75;;;;;;;;;;5096635;28;20288;-52
2020/12/10 11:24:41;;;;;;;5.03;2.60;;;;;;;;;;5076445;28;20178;-52
2020/12/10 11:27:07;;;;;;;2.92;2.63;;;;;;;;;;5082227;28;20177;-52
2020/12/10 11:29:33;;;;;;;2.53;2.33;;;;;;;;;;5093379;28;20280;-52
2020/12/10 11:32:00;;;;;;;3.00;2.50;;;;;;;;;;5096569;28;20261;-52
2020/12/10 11:34:26;;;;;;;3.25;2.53;;;;;;;;;;5093298;28;20165;-52
2020/12/10 11:36:52;;;;;;;3.53;2.50;;;;;;;;;;5096793;28;20162;-52
2020/12/10 11:39:19;;;;;;;4.43;2.45;;;;;;;;;;5084217;28;20173;-52
2020/12/10 11:41:45;;;;;;;3.72;2.60;;;;;;;;;;5093756;28;20606;-51
2020/12/10 11:44:11;;;;;;;4.45;2.80;;;;;;;;;;5097136;28;20174;-51
2020/12/10 11:46:37;;;;;;;4.60;2.60;;;;;;;;;;5099974;28;20535;-51
2020/12/10 11:49:03;;;;;;;5.65;2.42;;;;;;;;;;5100544;28;20196;-51
2020/12/10 11:51:32;;;;;;;2.95;2.58;;;;;;;;;;5099779;28;20184;-51
2020/12/10 11:53:59;;;;;;;4.30;2.97;;;;;;;;;;5091311;28;20541;-51
2020/12/10 11:56:25;;;;;;;7.28;3.33;;;;;;;;;;5080268;28;20163;-52
2020/12/10 11:58:51;;;;;;;5.55;3.35;;;;;;;;;;5094456;28;20188;-52
2020/12/10 12:01:17;;;;;;;9.30;3.38;;;;;;;;;;5100136;28;20548;-52
2020/12/10 12:03:43;;;;;;;9.82;3.20;;;;;;;;;;5082976;28;20177;-52
2020/12/10 12:06:09;;;;;;;6.35;3.30;;;;;;;;;;5099475;28;20212;-52
2020/12/10 12:08:35;;;;;;;7.55;3.17;;;;;;;;;;5099761;28;20170;-52
2020/12/10 12:11:02;;;;;;;9.65;3.22;;;;;;;;;;5093444;28;20170;-52
2020/12/10 12:13:31;;;;;;;8.40;4.05;;;;;;;;;;5096209;28;20185;-52
2020/12/10 12:15:57;;;;;;;7.72;3.28;;;;;;;;;;5098168;28;20170;-52
2020/12/10 12:18:26;;;;;;;11.85;3.40;;;;;;;;;;5099078;28;20170;-52
2020/12/10 12:20:52;;;;;;;7.72;2.95;;;;;;;;;;5099738;28;20192;-52
2020/12/10 12:23:18;;;;;;;8.75;3.83;;;;;;;;;;5099097;28;20189;-52
2020/12/10 12:25:44;;;;;;;6.63;3.45;;;;;;;;;;5098431;28;20599;-52
2020/12/10 12:28:10;;;;;;;8.07;3.55;;;;;;;;;;5099785;28;20202;-52
2020/12/10 12:30:37;;;;;;;10.27;4.35;;;;;;;;;;5099697;28;20471;-52
2020/12/10 12:33:03;;;;;;;5.18;3.58;;;;;;;;;;5099806;28;20174;-52
2020/12/10 12:35:29;;;;;;;6.68;3.63;;;;;;;;;;5098637;28;20186;-52
2020/12/10 12:37:56;;;;;;;10.85;3.95;;;;;;;;;;5099361;28;20181;-52
2020/12/10 12:40:22;;;;;;;6.65;3.72;;;;;;;;;;5099560;28;20239;-51
2020/12/10 12:42:48;;;;;;;6.93;3.67;;;;;;;;;;5092335;28;20171;-51
2020/12/10 12:45:13;;;;;;;7.97;3.75;;;;;;;;;;5093825;28;20263;-51
2020/12/10 12:47:42;;;;;;;9.57;4.15;;;;;;;;;;5098886;28;20182;-51
2020/12/10 12:50:08;;;;;;;7.82;4.07;;;;;;;;;;5099098;28;20245;-52
2020/12/10 12:52:34;;;;;;;11.98;4.25;;;;;;;;;;5097359;28;20178;-52
2020/12/10 12:55:00;;;;;;;7.07;4.28;;;;;;;;;;5080425;28;20178;-52
2020/12/10 12:57:26;;;;;;;10.70;4.57;;;;;;;;;;5094540;28;20208;-52
2020/12/10 12:59:52;;;;;;;8.07;4.32;;;;;;;;;;5099214;28;20162;-52
2020/12/10 13:02:18;;;;;;;10.15;3.95;;;;;;;;;;5098477;28;20340;-52
2020/12/10 13:04:45;;;;;;;8.90;4.18;;;;;;;;;;5098679;28;20166;-52
2020/12/10 13:07:11;;;;;;;7.68;4.05;;;;;;;;;;5098993;28;20584;-52
2020/12/10 13:09:38;;;;;;;7.07;4.13;;;;;;;;;;5099423;28;20170;-52
2020/12/10 13:12:04;;;;;;;6.90;4.10;;;;;;;;;;5098899;28;20235;-52
2020/12/10 13:14:30;;;;;;;6.75;4.68;;;;;;;;;;5097555;28;20179;-51
2020/12/10 13:16:56;;;;;;;8.75;4.32;;;;;;;;;;5097306;28;20439;-51
2020/12/10 13:19:22;;;;;;;8.85;4.50;;;;;;;;;;5117647;28;20177;-52
2020/12/10 13:21:48;;;;;;;7.72;4.38;;;;;;;;;;5108152;28;20196;-51
2020/12/10 13:24:14;;;;;;;7.05;4.60;;;;;;;;;;5098481;28;20441;-51
2020/12/10 13:26:40;;;;;;;7.80;4.88;;;;;;;;;;5098818;28;20198;-52
2020/12/10 13:29:06;;;;;;;6.90;4.22;;;;;;;;;;5098921;28;20596;-52
2020/12/10 13:31:33;;;;;;;5.95;4.32;;;;;;;;;;5098439;28;20252;-52
2020/12/10 13:34:00;;;;;;;5.75;4.00;;;;;;;;;;5098323;28;20185;-52
2020/12/10 13:36:26;;;;;;;6.28;4.45;;;;;;;;;;5098396;28;20587;-52
2020/12/10 13:38:52;;;;;;;6.68;4.65;;;;;;;;;;5098799;28;20177;-52
2020/12/10 13:41:18;;;;;;;6.60;4.68;;;;;;;;;;5104504;28;20173;-52
2020/12/10 13:43:48;;;;;;;8.68;4.35;;;;;;;;;;5100733;28;20230;-52
2020/12/10 13:46:15;;;;;;;7.93;4.25;;;;;;;;;;5118110;28;20280;-52
2020/12/10 13:48:41;;;;;;;6.80;4.32;;;;;;;;;;5111593;28;20273;-52
2020/12/10 13:51:07;;;;;;;6.03;4.28;;;;;;;;;;5098151;28;20177;-52
2020/12/10 13:53:33;;;;;;;5.20;3.90;;;;;;;;;;5098561;28;20162;-52
2020/12/10 13:56:00;;;;;;;5.65;4.22;;;;;;;;;;5097289;28;20559;-52
2020/12/10 13:58:26;;;;;;;5.53;4.32;;;;;;;;;;5098096;28;20185;-52
2020/12/10 14:00:52;;;;;;;8.35;3.97;;;;;;;;;;5097906;28;20166;-52
2020/12/10 14:03:18;;;;;;;6.70;4.82;;;;;;;;;;5097983;28;20227;-52
2020/12/10 14:05:44;;;;;;;6.22;4.40;;;;;;;;;;5097579;28;20201;-52
2020/12/10 14:08:10;;;;;;;6.05;4.53;;;;;;;;;;5094103;28;20577;-52
2020/12/10 14:10:36;;;;;;;5.80;4.43;;;;;;;;;;5112996;28;20249;-52
2020/12/10 14:13:02;;;;;;;5.03;4.18;;;;;;;;;;5095637;28;20170;-52
2020/12/10 14:15:28;;;;;;;8.00;4.35;;;;;;;;;;5109749;28;20548;-52
2020/12/10 14:17:54;;;;;;;6.78;4.78;;;;;;;;;;5099652;28;20181;-52
2020/12/10 14:20:22;;;;;;;7.55;5.15;;;;;;;;;;5096896;28;20184;-52
2020/12/10 14:22:48;;;;;;;6.72;4.13;;;;;;;;;;5097004;28;20255;-51
2020/12/10 14:25:14;;;;;;;8.57;4.90;;;;;;;;;;5079031;28;20569;-52
2020/12/10 14:27:40;;;;;;;7.63;4.80;;;;;;;;;;5087884;28;20177;-52
2020/12/10 14:30:06;;;;;;;7.72;4.53;;;;;;;;;;5096986;28;20174;-52
2020/12/10 14:32:32;;;;;;;7.78;5.00;;;;;;;;;;5096966;28;20276;-52
2020/12/10 14:34:58;;;;;;;9.55;5.00;;;;;;;;;;5096774;28;20604;-51
2020/12/10 14:37:24;;;;;;;40.67;13.15;;;;;;;;;;5097136;28;20177;-51
2020/12/10 14:39:50;;;;;;;46.50;15.23;;;;;;;;;;5096926;28;20491;-52
2020/12/10 14:42:17;;;;;;;70.35;20.55;;;;;;;;;;5105061;28;20223;-52
2020/12/10 14:44:46;;;;;;;50.75;15.73;;;;;;;;;;5107724;28;20550;-52
2020/12/10 14:47:12;;;;;;;41.53;13.70;;;;;;;;;;5082974;28;20190;-52